Daydream Believer — V7XJ3 — position and weather

sailwx.info

Track history (hours):
 
Tides and Currents Weather Stations Pressure Air Temp Water Temp Dewpoint Dewpoint Depression Visibility Wind Speed Wind Dir Waves Ship Positions

Daydream Believer

Last reported at 2015-Jan-19 15:15 UTC. Time now 2015-Jan-29 06:21 UTC.
Position N 37°15' W 125°42'.
Warning: this ship's position is 9 days out of date.

Length 178 m; draft 7 m.

Type: Cargo ship. MMSI: 538004493.

Date/timePositionNaut miles runAvg speedWind from/ knotsBaromVisibWave heightAir tempDewpointWater temp
2015-Jan-19 15:15N 37°15' W 125°42'1211.0
2015-Jan-19 14:09N 37°16' W 125°27'1111.3
2015-Jan-19 13:12N 37°18' W 125°13'1311.7
2015-Jan-19 12:07N 37°20' W 124°58'711.5
2015-Jan-19 11:33N 37°22' W 124°50'1511.4
2015-Jan-19 10:16N 37°24' W 124°32'1211.8
2015-Jan-19 09:14N 37°25' W 124°16'911.9
2015-Jan-19 08:30N 37°25' W 124°05'1111.7
2015-Jan-19 07:33N 37°26' W 123°51'1211.9
2015-Jan-19 06:33N 37°27' W 123°37'1211.9
2015-Jan-19 05:33N 37°28' W 123°22'1111.4
2015-Jan-19 04:33N 37°32' W 123°08'1212.0
2015-Jan-19 03:33N 37°38' W 122°55'1211.9
2015-Jan-19 02:33N 37°44' W 122°42'1010.1
2015-Jan-19 01:33N 37°48' W 122°31'1110.8
2015-Jan-19 00:33N 37°59' W 122°26'1412.6
2015-Jan-18 23:28N 38°02' W 122°09'10 9.2
2015-Jan-18 22:22N 38°03' W 121°56'2 2.1
2015-Jan-18 21:29N 38°03' W 121°54'0 0.0
2015-Jan-18 20:29N 38°03' W 121°54'0 0.0
2015-Jan-18 19:29N 38°03' W 121°54'0 0.0
2015-Jan-18 18:23N 38°03' W 121°54'0 0.0
2015-Jan-18 17:29N 38°03' W 121°54'0 0.1
2015-Jan-18 16:11N 38°03' W 121°54'0 0.0
2015-Jan-18 15:29N 38°03' W 121°54'0 0.0
2015-Jan-18 14:17N 38°03' W 121°54'0 0.0
2015-Jan-18 13:29N 38°03' W 121°54'0 0.1
2015-Jan-18 12:11N 38°03' W 121°54'0 0.2
2015-Jan-18 11:29N 38°03' W 121°54'0 0.0
2015-Jan-18 10:23N 38°03' W 121°54'0 0.0
2015-Jan-18 09:29N 38°03' W 121°54'0 0.0
2015-Jan-18 08:33N 38°03' W 121°54'2 2.3
2015-Jan-18 07:32N 38°03' W 121°57'  
2015-Jan-12 09:32N 38°27' W 121°36'25 7.3
2015-Jan-12 06:11N 38°04' W 121°48'6 9.9
2015-Jan-12 05:33N 38°03' W 121°56'9 8.9
2015-Jan-12 04:31N 38°02' W 122°07'9 9.3
2015-Jan-12 03:33N 38°03' W 122°19'1110.5
2015-Jan-12 02:33N 37°55' W 122°27'1212.0
2015-Jan-12 01:33N 37°44' W 122°20'1 0.8
2015-Jan-12 00:32N 37°44' W 122°19'0 0.2
2015-Jan-11 23:32N 37°44' W 122°19'0 0.0
2015-Jan-11 22:32N 37°44' W 122°19'0 0.0
2015-Jan-11 21:32N 37°44' W 122°19'0 0.0
2015-Jan-11 20:32N 37°44' W 122°19'0 0.2
2015-Jan-11 19:32N 37°44' W 122°19'0 0.0
2015-Jan-11 18:32N 37°44' W 122°19'0 0.0
2015-Jan-11 17:32N 37°44' W 122°20'0 0.0
2015-Jan-11 16:32N 37°44' W 122°20'0 0.0
2015-Jan-11 15:32N 37°44' W 122°20'0 0.0
2015-Jan-11 14:32N 37°44' W 122°20'0 0.1
2015-Jan-11 13:32N 37°44' W 122°20'0 0.1
2015-Jan-11 12:32N 37°44' W 122°20'0 0.1
2015-Jan-11 11:32N 37°44' W 122°19'0 0.0
2015-Jan-11 10:32N 37°44' W 122°19'0 0.0
2015-Jan-11 09:32N 37°44' W 122°19'0 0.0
2015-Jan-11 08:32N 37°44' W 122°19'0 0.0
2015-Jan-11 07:29N 37°44' W 122°19'0 0.0
2015-Jan-11 06:32N 37°44' W 122°19'0 0.2
2015-Jan-11 05:32N 37°44' W 122°19'0 0.1
2015-Jan-11 04:32N 37°44' W 122°20'0 0.0
2015-Jan-11 03:32N 37°44' W 122°20'0 0.0
2015-Jan-11 02:32N 37°44' W 122°20'0 0.0
2015-Jan-11 01:32N 37°44' W 122°20'0 0.0
2015-Jan-11 00:32N 37°44' W 122°20'0 0.1
2015-Jan-10 23:32N 37°44' W 122°20'0 0.0
2015-Jan-10 22:32N 37°44' W 122°19'0 0.0
2015-Jan-10 21:32N 37°44' W 122°19'0 0.0
2015-Jan-10 20:32N 37°44' W 122°19'0 0.0
2015-Jan-10 19:29N 37°44' W 122°19'0 0.0
2015-Jan-10 18:32N 37°44' W 122°19'0 0.1
2015-Jan-10 17:32N 37°44' W 122°19'0 0.0
2015-Jan-10 16:32N 37°44' W 122°20'0 0.0
2015-Jan-10 15:29N 37°44' W 122°20'0 0.0
2015-Jan-10 14:32N 37°44' W 122°20'0 0.0
2015-Jan-10 13:32N 37°44' W 122°19'0 0.1
2015-Jan-10 12:32N 37°44' W 122°20'0 0.1
2015-Jan-10 11:32N 37°44' W 122°19'0 0.0
2015-Jan-10 10:32N 37°44' W 122°19'0 0.0
2015-Jan-10 09:32N 37°44' W 122°19'0 0.0
2015-Jan-10 08:32N 37°44' W 122°19'0 0.0
2015-Jan-10 07:32N 37°44' W 122°19'0 0.0
2015-Jan-10 06:32N 37°44' W 122°19'0 0.2
2015-Jan-10 05:32N 37°44' W 122°20'0 0.1
2015-Jan-10 04:29N 37°44' W 122°20'0 0.0
2015-Jan-10 03:29N 37°44' W 122°20'0 0.0
2015-Jan-10 02:32N 37°44' W 122°20'0 0.0
2015-Jan-10 01:32N 37°44' W 122°20'0 0.0
2015-Jan-10 00:32N 37°44' W 122°20'0 0.0
2015-Jan-09 23:32N 37°44' W 122°20'0 0.1
2015-Jan-09 22:32N 37°44' W 122°20'0 0.1
2015-Jan-09 21:32N 37°44' W 122°19'0 0.0
2015-Jan-09 20:32N 37°44' W 122°19'0 0.0
2015-Jan-09 19:32N 37°44' W 122°19'0 0.0
2015-Jan-09 18:32N 37°44' W 122°19'0 0.1
2015-Jan-09 17:32N 37°44' W 122°19'0 0.2
2015-Jan-09 16:29N 37°44' W 122°20'0 0.0
2015-Jan-09 15:32N 37°44' W 122°20'  
Track history (hours):
 
Tides and Currents Weather Stations Pressure Air Temp Water Temp Dewpoint Dewpoint Depression Visibility Wind Speed Wind Dir Waves Ship Positions

Daydream Believer

Last reported at 2015-Jan-19 15:15 UTC. Time now 2015-Jan-29 06:21 UTC.
Position N 37°15' W 125°42'.
Warning: this ship's position is 9 days out of date.

Length 178 m; draft 7 m.

Type: Cargo ship. MMSI: 538004493.

Date/timePositionNaut miles runAvg speedWind from/ knotsBaromVisibWave heightAir tempDewpointWater temp
2015-Jan-19 15:15N 37°15' W 125°42'1211.0
2015-Jan-19 14:09N 37°16' W 125°27'1111.3
2015-Jan-19 13:12N 37°18' W 125°13'1311.7
2015-Jan-19 12:07N 37°20' W 124°58'711.5
2015-Jan-19 11:33N 37°22' W 124°50'1511.4
2015-Jan-19 10:16N 37°24' W 124°32'1211.8
2015-Jan-19 09:14N 37°25' W 124°16'911.9
2015-Jan-19 08:30N 37°25' W 124°05'1111.7
2015-Jan-19 07:33N 37°26' W 123°51'1211.9
2015-Jan-19 06:33N 37°27' W 123°37'1211.9
2015-Jan-19 05:33N 37°28' W 123°22'1111.4
2015-Jan-19 04:33N 37°32' W 123°08'1212.0
2015-Jan-19 03:33N 37°38' W 122°55'1211.9
2015-Jan-19 02:33N 37°44' W 122°42'1010.1
2015-Jan-19 01:33N 37°48' W 122°31'1110.8
2015-Jan-19 00:33N 37°59' W 122°26'1412.6
2015-Jan-18 23:28N 38°02' W 122°09'10 9.2
2015-Jan-18 22:22N 38°03' W 121°56'2 2.1
2015-Jan-18 21:29N 38°03' W 121°54'0 0.0
2015-Jan-18 20:29N 38°03' W 121°54'0 0.0
2015-Jan-18 19:29N 38°03' W 121°54'0 0.0
2015-Jan-18 18:23N 38°03' W 121°54'0 0.0
2015-Jan-18 17:29N 38°03' W 121°54'0 0.1
2015-Jan-18 16:11N 38°03' W 121°54'0 0.0
2015-Jan-18 15:29N 38°03' W 121°54'0 0.0
2015-Jan-18 14:17N 38°03' W 121°54'0 0.0
2015-Jan-18 13:29N 38°03' W 121°54'0 0.1
2015-Jan-18 12:11N 38°03' W 121°54'0 0.2
2015-Jan-18 11:29N 38°03' W 121°54'0 0.0
2015-Jan-18 10:23N 38°03' W 121°54'0 0.0
2015-Jan-18 09:29N 38°03' W 121°54'0 0.0
2015-Jan-18 08:33N 38°03' W 121°54'2 2.3
2015-Jan-18 07:32N 38°03' W 121°57'  
2015-Jan-12 09:32N 38°27' W 121°36'25 7.3
2015-Jan-12 06:11N 38°04' W 121°48'6 9.9
2015-Jan-12 05:33N 38°03' W 121°56'9 8.9
2015-Jan-12 04:31N 38°02' W 122°07'9 9.3
2015-Jan-12 03:33N 38°03' W 122°19'1110.5
2015-Jan-12 02:33N 37°55' W 122°27'1212.0
2015-Jan-12 01:33N 37°44' W 122°20'1 0.8
2015-Jan-12 00:32N 37°44' W 122°19'0 0.2
2015-Jan-11 23:32N 37°44' W 122°19'0 0.0
2015-Jan-11 22:32N 37°44' W 122°19'0 0.0
2015-Jan-11 21:32N 37°44' W 122°19'0 0.0
2015-Jan-11 20:32N 37°44' W 122°19'0 0.2
2015-Jan-11 19:32N 37°44' W 122°19'0 0.0
2015-Jan-11 18:32N 37°44' W 122°19'0 0.0
2015-Jan-11 17:32N 37°44' W 122°20'0 0.0
2015-Jan-11 16:32N 37°44' W 122°20'0 0.0
2015-Jan-11 15:32N 37°44' W 122°20'0 0.0
2015-Jan-11 14:32N 37°44' W 122°20'0 0.1
2015-Jan-11 13:32N 37°44' W 122°20'0 0.1
2015-Jan-11 12:32N 37°44' W 122°20'0 0.1
2015-Jan-11 11:32N 37°44' W 122°19'0 0.0
2015-Jan-11 10:32N 37°44' W 122°19'0 0.0
2015-Jan-11 09:32N 37°44' W 122°19'0 0.0
2015-Jan-11 08:32N 37°44' W 122°19'0 0.0
2015-Jan-11 07:29N 37°44' W 122°19'0 0.0
2015-Jan-11 06:32N 37°44' W 122°19'0 0.2
2015-Jan-11 05:32N 37°44' W 122°19'0 0.1
2015-Jan-11 04:32N 37°44' W 122°20'0 0.0
2015-Jan-11 03:32N 37°44' W 122°20'0 0.0
2015-Jan-11 02:32N 37°44' W 122°20'0 0.0
2015-Jan-11 01:32N 37°44' W 122°20'0 0.0
2015-Jan-11 00:32N 37°44' W 122°20'0 0.1
2015-Jan-10 23:32N 37°44' W 122°20'0 0.0
2015-Jan-10 22:32N 37°44' W 122°19'0 0.0
2015-Jan-10 21:32N 37°44' W 122°19'0 0.0
2015-Jan-10 20:32N 37°44' W 122°19'0 0.0
2015-Jan-10 19:29N 37°44' W 122°19'0 0.0
2015-Jan-10 18:32N 37°44' W 122°19'0 0.1
2015-Jan-10 17:32N 37°44' W 122°19'0 0.0
2015-Jan-10 16:32N 37°44' W 122°20'0 0.0
2015-Jan-10 15:29N 37°44' W 122°20'0 0.0
2015-Jan-10 14:32N 37°44' W 122°20'0 0.0
2015-Jan-10 13:32N 37°44' W 122°19'0 0.1
2015-Jan-10 12:32N 37°44' W 122°20'0 0.1
2015-Jan-10 11:32N 37°44' W 122°19'0 0.0
2015-Jan-10 10:32N 37°44' W 122°19'0 0.0
2015-Jan-10 09:32N 37°44' W 122°19'0 0.0
2015-Jan-10 08:32N 37°44' W 122°19'0 0.0
2015-Jan-10 07:32N 37°44' W 122°19'0 0.0
2015-Jan-10 06:32N 37°44' W 122°19'0 0.2
2015-Jan-10 05:32N 37°44' W 122°20'0 0.1
2015-Jan-10 04:29N 37°44' W 122°20'0 0.0
2015-Jan-10 03:29N 37°44' W 122°20'0 0.0
2015-Jan-10 02:32N 37°44' W 122°20'0 0.0
2015-Jan-10 01:32N 37°44' W 122°20'0 0.0
2015-Jan-10 00:32N 37°44' W 122°20'0 0.0
2015-Jan-09 23:32N 37°44' W 122°20'0 0.1
2015-Jan-09 22:32N 37°44' W 122°20'0 0.1
2015-Jan-09 21:32N 37°44' W 122°19'0 0.0
2015-Jan-09 20:32N 37°44' W 122°19'0 0.0
2015-Jan-09 19:32N 37°44' W 122°19'0 0.0
2015-Jan-09 18:32N 37°44' W 122°19'0 0.1
2015-Jan-09 17:32N 37°44' W 122°19'0 0.2
2015-Jan-09 16:29N 37°44' W 122°20'0 0.0
2015-Jan-09 15:32N 37°44' W 122°20'  

Dump ship's entire track history